BEL8AN GOBD-GUCY
Flight info
| Callsign | BEL8AN |
|---|---|
| Flight time | 1h 4m |
| Altitude | 39000 |
| Route | BIDAV1H BIDAV DCT POTOX/N0361F230 B600 KIRTI KIRTI1B |
| Aircraft | A333/H-SDE3GHIJ2J3J5M1RVWXY/LB2D1 |
Departure
| Time | 2026-05-05 17:01 |
|---|---|
| Airport | Blaise Diagne International Airport (GOBD) |
Arrival
| Time | 2026-05-05 18:05 |
|---|---|
| Airport | Ahmed Sékou Touré International Airport (GUCY) |
| Time | Latitude | Longitude | Altitude | Speed | Heading |
|---|---|---|---|---|---|
| 2026-05-05 16:48 | 14.67024 | -17.06850 | 298 ft | 0 kts | 89° |
| 2026-05-05 16:50 | 14.67023 | -17.06869 | 301 ft | 4 kts | 75° |
| 2026-05-05 16:50 | 14.67013 | -17.06895 | 300 ft | 4 kts | 68° |
| 2026-05-05 16:50 | 14.67008 | -17.06915 | 303 ft | 4 kts | 83° |
| 2026-05-05 16:50 | 14.67004 | -17.06943 | 301 ft | 4 kts | 90° |
| 2026-05-05 16:51 | 14.67004 | -17.06950 | 300 ft | 1 kts | 94° |
| 2026-05-05 16:53 | 14.67003 | -17.06944 | 300 ft | 2 kts | 98° |
| 2026-05-05 16:53 | 14.66996 | -17.06933 | 300 ft | 2 kts | 133° |
| 2026-05-05 16:53 | 14.66987 | -17.06931 | 298 ft | 2 kts | 170° |
| 2026-05-05 16:54 | 14.66959 | -17.06939 | 300 ft | 7 kts | 193° |
| 2026-05-05 16:54 | 14.66907 | -17.06962 | 301 ft | 9 kts | 204° |
| 2026-05-05 16:54 | 14.66832 | -17.06976 | 303 ft | 12 kts | 182° |
| 2026-05-05 16:54 | 14.66755 | -17.06978 | 302 ft | 6 kts | 181° |
| 2026-05-05 16:55 | 14.66692 | -17.06981 | 303 ft | 11 kts | 195° |
| 2026-05-05 16:55 | 14.66666 | -17.07027 | 304 ft | 7 kts | 264° |
| 2026-05-05 16:55 | 14.66648 | -17.07074 | 305 ft | 7 kts | 221° |
| 2026-05-05 16:55 | 14.66600 | -17.07087 | 304 ft | 8 kts | 184° |
| 2026-05-05 16:56 | 14.66538 | -17.07089 | 305 ft | 10 kts | 181° |
| 2026-05-05 16:56 | 14.66464 | -17.07088 | 303 ft | 11 kts | 179° |
| 2026-05-05 16:56 | 14.66378 | -17.07088 | 305 ft | 13 kts | 180° |
| 2026-05-05 16:56 | 14.66283 | -17.07088 | 306 ft | 14 kts | 179° |
| 2026-05-05 16:57 | 14.66181 | -17.07085 | 305 ft | 16 kts | 178° |
| 2026-05-05 16:57 | 14.66068 | -17.07082 | 308 ft | 17 kts | 178° |
| 2026-05-05 16:57 | 14.65947 | -17.07082 | 309 ft | 18 kts | 180° |
| 2026-05-05 16:57 | 14.65829 | -17.07081 | 309 ft | 17 kts | 180° |
| 2026-05-05 16:58 | 14.65709 | -17.07080 | 308 ft | 18 kts | 179° |
| 2026-05-05 16:58 | 14.65588 | -17.07079 | 308 ft | 12 kts | 179° |
| 2026-05-05 16:58 | 14.65534 | -17.07127 | 310 ft | 11 kts | 255° |
| 2026-05-05 16:58 | 14.65534 | -17.07211 | 310 ft | 13 kts | 279° |
| 2026-05-05 16:59 | 14.65576 | -17.07263 | 310 ft | 10 kts | 340° |
| 2026-05-05 16:59 | 14.65601 | -17.07266 | 311 ft | 0 kts | 358° |
| 2026-05-05 17:00 | 14.65603 | -17.07267 | 308 ft | 6 kts | 358° |
| 2026-05-05 17:00 | 14.65904 | -17.07270 | 305 ft | 82 kts | 359° |
| 2026-05-05 17:00 | 14.66720 | -17.07279 | 306 ft | 151 kts | 359° |
| 2026-05-05 17:01 | 14.67952 | -17.07270 | 587 ft | 192 kts | 358° |
| 2026-05-05 17:01 | 14.69290 | -17.07239 | 1565 ft | 190 kts | 360° |
| 2026-05-05 17:01 | 14.70608 | -17.07221 | 2581 ft | 192 kts | 358° |
| 2026-05-05 17:01 | 14.72003 | -17.07204 | 3027 ft | 211 kts | 358° |
| 2026-05-05 17:02 | 14.73570 | -17.07188 | 3276 ft | 241 kts | 358° |
| 2026-05-05 17:02 | 14.75329 | -17.07169 | 3600 ft | 261 kts | 359° |
| 2026-05-05 17:02 | 14.77176 | -17.07148 | 4183 ft | 268 kts | 359° |
| 2026-05-05 17:02 | 14.79052 | -17.07125 | 4887 ft | 273 kts | 0° |
| 2026-05-05 17:03 | 14.80971 | -17.07101 | 5583 ft | 277 kts | 2° |
| 2026-05-05 17:03 | 14.82861 | -17.06760 | 6296 ft | 277 kts | 26° |
| 2026-05-05 17:03 | 14.84404 | -17.05605 | 7008 ft | 276 kts | 51° |
| 2026-05-05 17:03 | 14.85275 | -17.03860 | 7713 ft | 275 kts | 78° |
| 2026-05-05 17:04 | 14.85494 | -17.01897 | 8475 ft | 276 kts | 89° |
| 2026-05-05 17:04 | 14.85548 | -16.99937 | 9283 ft | 277 kts | 90° |
| 2026-05-05 17:04 | 14.85602 | -16.97913 | 10051 ft | 281 kts | 90° |
| 2026-05-05 17:04 | 14.85651 | -16.95858 | 10393 ft | 300 kts | 90° |
| 2026-05-05 17:05 | 14.85688 | -16.93634 | 10697 ft | 318 kts | 93° |
| 2026-05-05 17:05 | 14.85377 | -16.91346 | 11212 ft | 325 kts | 106° |
| 2026-05-05 17:05 | 14.84438 | -16.89219 | 11830 ft | 329 kts | 125° |
| 2026-05-05 17:05 | 14.82798 | -16.87571 | 12498 ft | 334 kts | 147° |
| 2026-05-05 17:06 | 14.80613 | -16.86743 | 13207 ft | 340 kts | 170° |
| 2026-05-05 17:06 | 14.78243 | -16.86591 | 13926 ft | 343 kts | 177° |
| 2026-05-05 17:06 | 14.75843 | -16.86586 | 14558 ft | 346 kts | 178° |
| 2026-05-05 17:06 | 14.73423 | -16.86593 | 15192 ft | 349 kts | 179° |
| 2026-05-05 17:07 | 14.70980 | -16.86593 | 15802 ft | 352 kts | 179° |
| 2026-05-05 17:07 | 14.68516 | -16.86585 | 16409 ft | 356 kts | 179° |
| 2026-05-05 17:07 | 14.66021 | -16.86571 | 17018 ft | 360 kts | 179° |
| 2026-05-05 17:07 | 14.63507 | -16.86555 | 17614 ft | 364 kts | 179° |
| 2026-05-05 17:08 | 14.60969 | -16.86537 | 18244 ft | 365 kts | 179° |
| 2026-05-05 17:08 | 14.58411 | -16.86519 | 18690 ft | 371 kts | 180° |
| 2026-05-05 17:08 | 14.55820 | -16.86499 | 19167 ft | 375 kts | 180° |
| 2026-05-05 17:08 | 14.53202 | -16.86479 | 19660 ft | 378 kts | 180° |
| 2026-05-05 17:09 | 14.50567 | -16.86460 | 20167 ft | 380 kts | 181° |
| 2026-05-05 17:09 | 14.47915 | -16.86440 | 20675 ft | 383 kts | 181° |
| 2026-05-05 17:09 | 14.45239 | -16.86420 | 21163 ft | 386 kts | 181° |
| 2026-05-05 17:09 | 14.42543 | -16.86400 | 21673 ft | 389 kts | 181° |
| 2026-05-05 17:10 | 14.39830 | -16.86380 | 22170 ft | 391 kts | 181° |
| 2026-05-05 17:10 | 14.37097 | -16.86360 | 22669 ft | 394 kts | 182° |
| 2026-05-05 17:10 | 14.34343 | -16.86339 | 23158 ft | 397 kts | 182° |
| 2026-05-05 17:10 | 14.31573 | -16.86314 | 23615 ft | 400 kts | 182° |
| 2026-05-05 17:11 | 14.28777 | -16.86288 | 23947 ft | 405 kts | 182° |
| 2026-05-05 17:11 | 14.25941 | -16.86261 | 24290 ft | 409 kts | 182° |
| 2026-05-05 17:11 | 14.23086 | -16.86233 | 24687 ft | 412 kts | 182° |
| 2026-05-05 17:11 | 14.20251 | -16.86206 | 25068 ft | 414 kts | 182° |
| 2026-05-05 17:12 | 14.17358 | -16.86178 | 25443 ft | 417 kts | 183° |
| 2026-05-05 17:12 | 14.14448 | -16.86149 | 25819 ft | 420 kts | 183° |
| 2026-05-05 17:12 | 14.12472 | -16.86130 | 26077 ft | 422 kts | 183° |
| 2026-05-05 17:12 | 14.08562 | -16.86093 | 26565 ft | 426 kts | 183° |
| 2026-05-05 17:13 | 14.05603 | -16.86064 | 26931 ft | 428 kts | 184° |
| 2026-05-05 17:13 | 14.02598 | -16.85919 | 27295 ft | 434 kts | 178° |
| 2026-05-05 17:13 | 13.99603 | -16.85337 | 27659 ft | 442 kts | 170° |
| 2026-05-05 17:13 | 13.96622 | -16.84494 | 28012 ft | 446 kts | 168° |
| 2026-05-05 17:14 | 13.93627 | -16.83595 | 28344 ft | 450 kts | 168° |
| 2026-05-05 17:14 | 13.91600 | -16.82985 | 28565 ft | 452 kts | 168° |
| 2026-05-05 17:14 | 13.88607 | -16.82086 | 28902 ft | 455 kts | 169° |
| 2026-05-05 17:14 | 13.85559 | -16.81175 | 29237 ft | 458 kts | 169° |
| 2026-05-05 17:15 | 13.82493 | -16.80262 | 29565 ft | 461 kts | 169° |
| 2026-05-05 17:15 | 13.79403 | -16.79342 | 29897 ft | 464 kts | 169° |
| 2026-05-05 17:15 | 13.76292 | -16.78418 | 30200 ft | 466 kts | 169° |
| 2026-05-05 17:15 | 13.73178 | -16.77493 | 30571 ft | 466 kts | 169° |
| 2026-05-05 17:16 | 13.70068 | -16.76569 | 30969 ft | 465 kts | 169° |
| 2026-05-05 17:16 | 13.66970 | -16.75649 | 31371 ft | 464 kts | 169° |
| 2026-05-05 17:16 | 13.63871 | -16.74729 | 31765 ft | 463 kts | 169° |
| 2026-05-05 17:16 | 13.60773 | -16.73811 | 32131 ft | 463 kts | 168° |
| 2026-05-05 17:17 | 13.57691 | -16.72897 | 32617 ft | 459 kts | 168° |
| 2026-05-05 17:17 | 13.54642 | -16.71993 | 33257 ft | 453 kts | 168° |
| 2026-05-05 17:17 | 13.51636 | -16.71101 | 33923 ft | 446 kts | 168° |
| 2026-05-05 17:17 | 13.48683 | -16.70226 | 34377 ft | 442 kts | 168° |
| 2026-05-05 17:18 | 13.45711 | -16.69348 | 34599 ft | 445 kts | 168° |
| 2026-05-05 17:18 | 13.42726 | -16.68467 | 34790 ft | 448 kts | 168° |
| 2026-05-05 17:18 | 13.39730 | -16.67582 | 35059 ft | 449 kts | 169° |
| 2026-05-05 17:18 | 13.36744 | -16.66634 | 35339 ft | 452 kts | 165° |
| 2026-05-05 17:19 | 13.33854 | -16.65309 | 35610 ft | 459 kts | 156° |
| 2026-05-05 17:19 | 13.31160 | -16.63508 | 35879 ft | 465 kts | 149° |
| 2026-05-05 17:19 | 13.28571 | -16.61506 | 36158 ft | 467 kts | 147° |
| 2026-05-05 17:19 | 13.26024 | -16.59423 | 36443 ft | 468 kts | 146° |
| 2026-05-05 17:20 | 13.23498 | -16.57307 | 36690 ft | 470 kts | 146° |
| 2026-05-05 17:20 | 13.20966 | -16.55177 | 36950 ft | 471 kts | 146° |
| 2026-05-05 17:20 | 13.18427 | -16.53050 | 37210 ft | 472 kts | 146° |
| 2026-05-05 17:20 | 13.15874 | -16.50925 | 37468 ft | 473 kts | 146° |
| 2026-05-05 17:21 | 13.13313 | -16.48807 | 37720 ft | 473 kts | 146° |
| 2026-05-05 17:21 | 13.10740 | -16.46688 | 37963 ft | 474 kts | 147° |
| 2026-05-05 17:21 | 13.08201 | -16.44602 | 38213 ft | 475 kts | 147° |
| 2026-05-05 17:22 | 13.03032 | -16.40362 | 38682 ft | 476 kts | 147° |
| 2026-05-05 17:22 | 13.00444 | -16.38240 | 38864 ft | 477 kts | 147° |
| 2026-05-05 17:22 | 12.97847 | -16.36110 | 38901 ft | 479 kts | 147° |
| 2026-05-05 17:23 | 12.92643 | -16.31842 | 38892 ft | 479 kts | 146° |
| 2026-05-05 17:23 | 12.87443 | -16.27578 | 38891 ft | 479 kts | 146° |
| 2026-05-05 17:24 | 12.82244 | -16.23318 | 38898 ft | 479 kts | 146° |
| 2026-05-05 17:24 | 12.77039 | -16.19057 | 38883 ft | 479 kts | 146° |
| 2026-05-05 17:25 | 12.71833 | -16.14797 | 38883 ft | 479 kts | 146° |
| 2026-05-05 17:25 | 12.66626 | -16.10539 | 38886 ft | 479 kts | 146° |
| 2026-05-05 17:26 | 12.61422 | -16.06285 | 38893 ft | 479 kts | 146° |
| 2026-05-05 17:26 | 12.56216 | -16.02032 | 38892 ft | 479 kts | 146° |
| 2026-05-05 17:27 | 12.51007 | -15.97779 | 38883 ft | 479 kts | 146° |
| 2026-05-05 17:27 | 12.45801 | -15.93530 | 38875 ft | 479 kts | 146° |
| 2026-05-05 17:28 | 12.40583 | -15.89284 | 38873 ft | 479 kts | 146° |
| 2026-05-05 17:28 | 12.35363 | -15.85058 | 38873 ft | 479 kts | 146° |
| 2026-05-05 17:29 | 12.30138 | -15.80832 | 38871 ft | 479 kts | 146° |
| 2026-05-05 17:29 | 12.24921 | -15.76614 | 38869 ft | 478 kts | 146° |
| 2026-05-05 17:30 | 12.19712 | -15.72403 | 38869 ft | 477 kts | 146° |
| 2026-05-05 17:30 | 12.14506 | -15.68197 | 38876 ft | 477 kts | 146° |
| 2026-05-05 17:31 | 12.09297 | -15.63990 | 38884 ft | 477 kts | 146° |
| 2026-05-05 17:31 | 12.04094 | -15.59790 | 38881 ft | 477 kts | 146° |
| 2026-05-05 17:32 | 11.98891 | -15.55594 | 38892 ft | 476 kts | 146° |
| 2026-05-05 17:32 | 11.93681 | -15.51419 | 38886 ft | 476 kts | 146° |
| 2026-05-05 17:33 | 11.88506 | -15.47282 | 38883 ft | 475 kts | 146° |
| 2026-05-05 17:33 | 11.83300 | -15.43121 | 38886 ft | 475 kts | 146° |
| 2026-05-05 17:34 | 11.78096 | -15.38961 | 38890 ft | 475 kts | 146° |
| 2026-05-05 17:34 | 11.72885 | -15.34798 | 38886 ft | 475 kts | 146° |
| 2026-05-05 17:35 | 11.67678 | -15.30639 | 38885 ft | 475 kts | 146° |
| 2026-05-05 17:35 | 11.62469 | -15.26482 | 38891 ft | 475 kts | 145° |
| 2026-05-05 17:36 | 11.57266 | -15.22330 | 38892 ft | 475 kts | 145° |
| 2026-05-05 17:36 | 11.52069 | -15.18186 | 38883 ft | 474 kts | 145° |
| 2026-05-05 17:37 | 11.46872 | -15.14044 | 38885 ft | 474 kts | 145° |
| 2026-05-05 17:37 | 11.41675 | -15.09903 | 38888 ft | 474 kts | 145° |
| 2026-05-05 17:38 | 11.36480 | -15.05767 | 38889 ft | 474 kts | 146° |
| 2026-05-05 17:38 | 11.31286 | -15.01634 | 38679 ft | 472 kts | 145° |
| 2026-05-05 17:38 | 11.28702 | -14.99577 | 38415 ft | 470 kts | 145° |
| 2026-05-05 17:39 | 11.26131 | -14.97532 | 38155 ft | 469 kts | 145° |
| 2026-05-05 17:39 | 11.23564 | -14.95491 | 37883 ft | 468 kts | 145° |
| 2026-05-05 17:39 | 11.21000 | -14.93453 | 37625 ft | 467 kts | 144° |
| 2026-05-05 17:39 | 11.18443 | -14.91421 | 37354 ft | 466 kts | 144° |
| 2026-05-05 17:40 | 11.15888 | -14.89396 | 37107 ft | 466 kts | 145° |
| 2026-05-05 17:40 | 11.13325 | -14.87377 | 36844 ft | 465 kts | 145° |
| 2026-05-05 17:40 | 11.10767 | -14.85364 | 36589 ft | 464 kts | 145° |
| 2026-05-05 17:40 | 11.08211 | -14.83354 | 36354 ft | 464 kts | 145° |
| 2026-05-05 17:41 | 11.05661 | -14.81348 | 36108 ft | 463 kts | 144° |
| 2026-05-05 17:41 | 11.03115 | -14.79346 | 35867 ft | 463 kts | 144° |
| 2026-05-05 17:41 | 11.00569 | -14.77344 | 35621 ft | 462 kts | 144° |
| 2026-05-05 17:41 | 10.98029 | -14.75348 | 35393 ft | 461 kts | 144° |
| 2026-05-05 17:42 | 10.95491 | -14.73352 | 35150 ft | 461 kts | 144° |
| 2026-05-05 17:42 | 10.92954 | -14.71360 | 34913 ft | 460 kts | 144° |
| 2026-05-05 17:42 | 10.90451 | -14.69393 | 34692 ft | 461 kts | 144° |
| 2026-05-05 17:42 | 10.87916 | -14.67402 | 34461 ft | 460 kts | 144° |
| 2026-05-05 17:43 | 10.85380 | -14.65411 | 34239 ft | 460 kts | 144° |
| 2026-05-05 17:43 | 10.82849 | -14.63423 | 34009 ft | 459 kts | 144° |
| 2026-05-05 17:43 | 10.80323 | -14.61441 | 33780 ft | 459 kts | 144° |
| 2026-05-05 17:43 | 10.77795 | -14.59457 | 33509 ft | 459 kts | 144° |
| 2026-05-05 17:44 | 10.75263 | -14.57471 | 33251 ft | 461 kts | 144° |
| 2026-05-05 17:44 | 10.72735 | -14.55487 | 32995 ft | 462 kts | 144° |
| 2026-05-05 17:44 | 10.70318 | -14.53290 | 32739 ft | 466 kts | 133° |
| 2026-05-05 17:44 | 10.68404 | -14.50620 | 32487 ft | 470 kts | 124° |
| 2026-05-05 17:45 | 10.66716 | -14.47764 | 32093 ft | 471 kts | 122° |
| 2026-05-05 17:45 | 10.65065 | -14.44874 | 31323 ft | 474 kts | 122° |
| 2026-05-05 17:45 | 10.63405 | -14.41968 | 30570 ft | 477 kts | 121° |
| 2026-05-05 17:45 | 10.61739 | -14.39059 | 30057 ft | 474 kts | 121° |
| 2026-05-05 17:46 | 10.60080 | -14.36174 | 29421 ft | 472 kts | 121° |
| 2026-05-05 17:46 | 10.58425 | -14.33301 | 28804 ft | 469 kts | 121° |
| 2026-05-05 17:46 | 10.56781 | -14.30449 | 28223 ft | 466 kts | 121° |
| 2026-05-05 17:46 | 10.55148 | -14.27620 | 27646 ft | 463 kts | 121° |
| 2026-05-05 17:47 | 10.53526 | -14.24814 | 27070 ft | 459 kts | 121° |
| 2026-05-05 17:47 | 10.51916 | -14.22027 | 26494 ft | 456 kts | 121° |
| 2026-05-05 17:47 | 10.50314 | -14.19259 | 25900 ft | 453 kts | 121° |
| 2026-05-05 17:47 | 10.48727 | -14.16515 | 25324 ft | 449 kts | 121° |
| 2026-05-05 17:48 | 10.47151 | -14.13791 | 24747 ft | 445 kts | 121° |
| 2026-05-05 17:48 | 10.45588 | -14.11089 | 24222 ft | 441 kts | 121° |
| 2026-05-05 17:48 | 10.44052 | -14.08435 | 23710 ft | 436 kts | 121° |
| 2026-05-05 17:48 | 10.42518 | -14.05787 | 23144 ft | 431 kts | 121° |
| 2026-05-05 17:49 | 10.41007 | -14.03178 | 22506 ft | 425 kts | 121° |
| 2026-05-05 17:49 | 10.39522 | -14.00615 | 21938 ft | 415 kts | 120° |
| 2026-05-05 17:49 | 10.38072 | -13.98112 | 21346 ft | 407 kts | 120° |
| 2026-05-05 17:49 | 10.36657 | -13.95672 | 20944 ft | 394 kts | 120° |
| 2026-05-05 17:50 | 10.35273 | -13.93285 | 20257 ft | 390 kts | 120° |
| 2026-05-05 17:50 | 10.33905 | -13.90925 | 19668 ft | 385 kts | 120° |
| 2026-05-05 17:50 | 10.32560 | -13.88606 | 19147 ft | 378 kts | 120° |
| 2026-05-05 17:50 | 10.31235 | -13.86322 | 18632 ft | 372 kts | 120° |
| 2026-05-05 17:51 | 10.29928 | -13.84069 | 18117 ft | 369 kts | 120° |
| 2026-05-05 17:51 | 10.28626 | -13.81824 | 17547 ft | 368 kts | 120° |
| 2026-05-05 17:51 | 10.27331 | -13.79594 | 17048 ft | 366 kts | 119° |
| 2026-05-05 17:51 | 10.26064 | -13.77412 | 16559 ft | 361 kts | 120° |
| 2026-05-05 17:52 | 10.24797 | -13.75230 | 16066 ft | 357 kts | 119° |
| 2026-05-05 17:52 | 10.23547 | -13.73076 | 15580 ft | 352 kts | 119° |
| 2026-05-05 17:52 | 10.22312 | -13.70952 | 15097 ft | 348 kts | 119° |
| 2026-05-05 17:52 | 10.21089 | -13.68847 | 14654 ft | 343 kts | 119° |
| 2026-05-05 17:53 | 10.19893 | -13.66788 | 14369 ft | 333 kts | 119° |
| 2026-05-05 17:53 | 10.18728 | -13.64785 | 14029 ft | 327 kts | 119° |
| 2026-05-05 17:53 | 10.17584 | -13.62817 | 13619 ft | 321 kts | 119° |
| 2026-05-05 17:53 | 10.16474 | -13.60909 | 13140 ft | 305 kts | 119° |
| 2026-05-05 17:54 | 10.15415 | -13.59112 | 12724 ft | 289 kts | 121° |
| 2026-05-05 17:54 | 10.14181 | -13.57546 | 12098 ft | 286 kts | 134° |
| 2026-05-05 17:54 | 10.12482 | -13.56448 | 11252 ft | 295 kts | 156° |
| 2026-05-05 17:54 | 10.10455 | -13.56020 | 10476 ft | 299 kts | 170° |
| 2026-05-05 17:55 | 10.08384 | -13.55865 | 9744 ft | 299 kts | 172° |
| 2026-05-05 17:55 | 10.06310 | -13.55746 | 8966 ft | 297 kts | 173° |
| 2026-05-05 17:55 | 10.04245 | -13.55624 | 8385 ft | 296 kts | 173° |
| 2026-05-05 17:55 | 10.02204 | -13.55496 | 8065 ft | 292 kts | 173° |
| 2026-05-05 17:56 | 10.00199 | -13.55366 | 7766 ft | 287 kts | 173° |
| 2026-05-05 17:56 | 9.98208 | -13.55234 | 7435 ft | 286 kts | 173° |
| 2026-05-05 17:56 | 9.96232 | -13.55097 | 7102 ft | 285 kts | 173° |
| 2026-05-05 17:56 | 9.94255 | -13.54958 | 6773 ft | 284 kts | 174° |
| 2026-05-05 17:57 | 9.92288 | -13.54820 | 6453 ft | 283 kts | 172° |
| 2026-05-05 17:57 | 9.90322 | -13.54680 | 6112 ft | 282 kts | 174° |
| 2026-05-05 17:57 | 9.88364 | -13.54542 | 5777 ft | 282 kts | 174° |
| 2026-05-05 17:57 | 9.86424 | -13.54406 | 5594 ft | 275 kts | 174° |
| 2026-05-05 17:58 | 9.84561 | -13.54273 | 5513 ft | 262 kts | 175° |
| 2026-05-05 17:58 | 9.82761 | -13.54147 | 5296 ft | 258 kts | 175° |
| 2026-05-05 17:58 | 9.80978 | -13.54021 | 4985 ft | 255 kts | 175° |
| 2026-05-05 17:58 | 9.79214 | -13.53896 | 4698 ft | 253 kts | 176° |
| 2026-05-05 17:59 | 9.77465 | -13.53612 | 4451 ft | 259 kts | 162° |
| 2026-05-05 17:59 | 9.75839 | -13.52810 | 3930 ft | 260 kts | 148° |
| 2026-05-05 17:59 | 9.74392 | -13.51747 | 3453 ft | 257 kts | 141° |
| 2026-05-05 17:59 | 9.73044 | -13.50564 | 3012 ft | 255 kts | 139° |
| 2026-05-05 18:00 | 9.71693 | -13.49396 | 2429 ft | 255 kts | 150° |
| 2026-05-05 18:00 | 9.70129 | -13.48773 | 1942 ft | 236 kts | 176° |
| 2026-05-05 18:00 | 9.68593 | -13.48949 | 1732 ft | 208 kts | 202° |
| 2026-05-05 18:00 | 9.67485 | -13.49700 | 1726 ft | 176 kts | 228° |
| 2026-05-05 18:01 | 9.66699 | -13.50530 | 1702 ft | 152 kts | 233° |
| 2026-05-05 18:01 | 9.66251 | -13.51047 | 1698 ft | 145 kts | 232° |
| 2026-05-05 18:01 | 9.65616 | -13.51799 | 1697 ft | 138 kts | 232° |
| 2026-05-05 18:01 | 9.64804 | -13.52763 | 1710 ft | 133 kts | 234° |
| 2026-05-05 18:02 | 9.64205 | -13.53476 | 1662 ft | 134 kts | 237° |
| 2026-05-05 18:02 | 9.63625 | -13.54205 | 1423 ft | 129 kts | 235° |
| 2026-05-05 18:02 | 9.63064 | -13.54863 | 1320 ft | 121 kts | 232° |
| 2026-05-05 18:02 | 9.62681 | -13.55279 | 1229 ft | 119 kts | 231° |
| 2026-05-05 18:03 | 9.62129 | -13.55894 | 1075 ft | 117 kts | 234° |
| 2026-05-05 18:03 | 9.61630 | -13.56573 | 933 ft | 124 kts | 234° |
| 2026-05-05 18:03 | 9.61064 | -13.57253 | 837 ft | 128 kts | 232° |
| 2026-05-05 18:03 | 9.60460 | -13.57905 | 688 ft | 126 kts | 232° |
| 2026-05-05 18:04 | 9.59907 | -13.58576 | 480 ft | 128 kts | 236° |
| 2026-05-05 18:04 | 9.59308 | -13.59271 | 333 ft | 133 kts | 232° |
| 2026-05-05 18:04 | 9.58727 | -13.59968 | 124 ft | 125 kts | 234° |
| 2026-05-05 18:04 | 9.58205 | -13.60590 | 67 ft | 99 kts | 230° |
| 2026-05-05 18:05 | 9.57869 | -13.60985 | 68 ft | 59 kts | 229° |
| 2026-05-05 18:05 | 9.57626 | -13.61274 | 68 ft | 50 kts | 230° |
| 2026-05-05 18:05 | 9.57405 | -13.61528 | 86 ft | 46 kts | 223° |
| 2026-05-05 18:05 | 9.57208 | -13.61760 | 87 ft | 40 kts | 231° |
| 2026-05-05 18:06 | 9.57127 | -13.61904 | 87 ft | 11 kts | 286° |
| 2026-05-05 18:06 | 9.57143 | -13.61929 | 87 ft | 6 kts | 311° |
| 2026-05-05 18:06 | 9.57189 | -13.61972 | 90 ft | 8 kts | 317° |
| 2026-05-05 18:06 | 9.57242 | -13.61992 | 88 ft | 9 kts | 14° |
| 2026-05-05 18:07 | 9.57291 | -13.61946 | 89 ft | 11 kts | 50° |
| 2026-05-05 18:07 | 9.57342 | -13.61907 | 89 ft | 6 kts | 358° |
| 2026-05-05 18:07 | 9.57382 | -13.61927 | 89 ft | 7 kts | 318° |
| 2026-05-05 18:07 | 9.57423 | -13.61962 | 89 ft | 8 kts | 323° |
| 2026-05-05 18:08 | 9.57430 | -13.61967 | 88 ft | 0 kts | 322° |